< Typhoon 197913 1979 Season Typhoon 197915 >
Typhoon 197914 (MAC)
General InformationTrack Information on Google MapsDetailed Wind InformationList of All Images || Disaster Info.ResourceGoogle EarthGE AnimationAtom FeedGeoJSON
Detalied Best Track (Time Zone = UTC)
Year Month Day Hour Lat. Long. Pressure (hPa) Wind (kt) Class Image Chart
1979 9 12 00 12.0 140.0 1008 0 2 Image Chart
1979 9 12 06 12.0 139.5 1008 0 2 Image Chart
1979 9 12 12 12.0 139.0 1008 0 2 Image Chart
1979 9 12 18 12.0 138.5 1008 0 2 Image Chart
1979 9 13 00 12.0 138.0 1008 0 2 Image Chart
1979 9 13 06 12.0 137.5 1008 0 2 Image Chart
1979 9 13 12 12.0 137.0 1008 0 2 Image Chart
1979 9 13 18 12.0 136.5 1008 0 2 Image Chart
1979 9 14 00 12.0 135.7 1008 0 2 Image Chart
1979 9 14 06 12.0 134.8 1006 0 2 Image Chart
1979 9 14 12 12.0 134.0 1006 0 2 Image Chart
1979 9 14 18 12.1 133.1 1006 0 2 Image Chart
1979 9 15 00 12.2 132.2 1004 0 2 Image Chart
1979 9 15 06 12.4 131.5 1004 0 2 Image Chart
1979 9 15 12 12.8 130.5 1002 0 2 Image Chart
1979 9 15 18 13.2 129.6 1000 0 2 Image Chart
1979 9 16 00 13.5 128.7 998 0 2 Image Chart
1979 9 16 06 13.8 127.9 994 45 3 Image Chart
1979 9 16 12 13.8 127.4 994 45 3 Image Chart
1979 9 16 18 13.8 126.8 992 50 4 Image Chart
1979 9 17 00 13.8 126.4 992 55 4 Image Chart
1979 9 17 06 13.8 125.8 992 55 4 Image Chart
1979 9 17 12 13.8 125.1 992 55 4 Image Chart
1979 9 17 18 13.8 124.5 992 55 4 Image Chart
1979 9 18 00 13.8 123.9 992 55 4 Image Chart
1979 9 18 06 13.4 123.2 985 55 4 Image Chart
1979 9 18 12 13.5 122.6 985 55 4 Image Chart
1979 9 18 18 13.7 122.0 990 50 4 Image Chart
1979 9 19 00 13.9 121.2 994 40 3 Image Chart
1979 9 19 06 14.4 120.6 1002 40 3 Image Chart
1979 9 19 12 14.8 119.9 1002 35 3 Image Chart
1979 9 19 18 15.6 119.5 1004 35 3 Image Chart
1979 9 20 00 16.1 119.2 1004 35 3 Image Chart
1979 9 20 06 17.0 118.9 1002 0 2 Image Chart
1979 9 20 12 17.6 118.5 1002 0 2 Image Chart
1979 9 20 18 17.8 118.2 1000 0 2 Image Chart
1979 9 21 00 18.2 118.0 998 0 2 Image Chart
1979 9 21 06 19.0 118.0 998 0 2 Image Chart
1979 9 21 12 19.5 117.3 998 0 2 Image Chart
1979 9 21 18 20.0 117.0 1000 0 2 Image Chart
1979 9 22 00 20.5 116.4 1000 0 2 Image Chart
1979 9 22 06 21.0 116.0 1000 0 2 Image Chart
1979 9 22 12 21.2 115.7 1000 0 2 Image Chart
1979 9 22 18 21.3 115.2 1000 35 3 Image Chart
1979 9 23 00 21.5 114.6 994 35 3 Image Chart
1979 9 23 06 21.8 114.0 994 35 3 Image Chart
1979 9 23 12 22.1 113.8 996 40 3 Image Chart
1979 9 23 18 22.3 113.5 998 0 2 Image Chart
1979 9 24 00 22.4 113.2 1000 0 2 Image Chart
1979 9 24 06 22.6 113.0 1002 0 2 Image Chart
1979 9 24 12 22.6 112.9 1004 0 2 Image Chart
Japan Meteorological Agency Best Track Data | Correction Date : 1993-07-07
< Typhoon 197913 1979 Season Typhoon 197915 >

Help